createdAt,value
2022-12-06T00:01:13.175Z,100010.00
2022-12-06T00:03:42.551Z,100022.47
2022-12-06T00:06:18.836Z,100019.87
2022-12-06T00:08:47.681Z,100016.97
2022-12-06T00:11:23.363Z,100026.28
2022-12-06T00:13:55.940Z,100023.53
2022-12-06T00:16:24.123Z,100015.09
2022-12-06T00:18:52.081Z,100007.84
2022-12-06T00:21:28.288Z,99986.31
2022-12-06T00:24:04.257Z,99973.00
2022-12-06T00:26:32.050Z,99964.38
2022-12-06T00:29:03.262Z,99963.50
2022-12-06T00:31:31.429Z,99967.69
2022-12-06T00:33:58.817Z,99979.03
2022-12-06T00:36:29.114Z,99970.25
2022-12-06T00:38:59.649Z,99967.06
2022-12-06T00:41:27.710Z,99961.75
2022-12-06T00:43:55.185Z,99969.50
2022-12-06T00:46:28.117Z,99967.94
2022-12-06T00:48:57.104Z,99959.19
2022-12-06T00:51:25.291Z,99957.19
2022-12-06T00:53:52.775Z,99957.88
2022-12-06T00:56:20.447Z,99943.91
2022-12-06T00:58:47.761Z,99947.63
2022-12-06T01:01:17.377Z,99946.28
2022-12-06T01:03:45.315Z,99934.22
2022-12-06T01:06:15.557Z,99939.56
2022-12-06T01:08:43.365Z,99936.25
2022-12-06T01:11:11.938Z,99936.28
2022-12-06T01:13:39.274Z,99926.75
2022-12-06T01:16:08.271Z,99924.47
2022-12-06T01:18:36.097Z,99905.34
2022-12-06T01:21:22.324Z,99895.28
2022-12-06T01:23:50.115Z,99897.09
2022-12-06T01:26:29.845Z,99879.59
2022-12-06T01:28:58.559Z,99860.28
2022-12-06T01:31:26.437Z,99866.31
2022-12-06T01:33:54.590Z,99861.16
2022-12-06T01:36:23.933Z,99865.09
2022-12-06T01:38:52.602Z,99861.47
2022-12-06T01:41:21.395Z,99848.87
2022-12-06T01:43:49.456Z,99848.84
2022-12-06T01:46:30.335Z,99847.87
2022-12-06T01:49:19.271Z,99856.69
2022-12-06T01:51:50.888Z,99871.37
2022-12-06T01:54:19.900Z,99898.97
2022-12-06T01:56:48.726Z,99938.38
2022-12-06T01:59:16.243Z,99962.47
2022-12-06T02:01:44.248Z,99954.31
2022-12-06T02:04:11.955Z,99928.09
2022-12-06T02:06:40.103Z,99925.22
2022-12-06T02:09:09.678Z,99914.44
2022-12-06T02:11:37.567Z,99921.09
2022-12-06T02:14:08.715Z,99929.25
2022-12-06T02:16:50.959Z,99935.09
2022-12-06T02:19:51.319Z,99933.41
2022-12-06T02:22:23.566Z,99927.88
2022-12-06T02:25:14.066Z,99936.78
2022-12-06T02:28:02.895Z,99937.28
2022-12-06T02:30:36.450Z,99936.50
2022-12-06T02:33:07.190Z,99945.34
2022-12-06T02:35:39.153Z,99956.88
2022-12-06T02:38:20.622Z,99967.78
2022-12-06T02:40:57.754Z,99944.22
2022-12-06T02:43:29.187Z,99917.09
2022-12-06T02:45:59.495Z,99909.75
2022-12-06T02:48:27.014Z,99897.47
2022-12-06T02:51:00.409Z,99883.06
2022-12-06T02:53:29.478Z,99883.81
2022-12-06T02:55:57.279Z,99892.34
2022-12-06T02:58:24.583Z,99893.81
2022-12-06T03:00:59.906Z,99872.56
2022-12-06T03:03:49.343Z,99863.41
2022-12-06T03:06:55.919Z,99861.38
2022-12-06T03:09:36.473Z,99837.25
2022-12-06T03:12:15.772Z,99837.34
2022-12-06T03:15:01.275Z,99828.72
2022-12-06T03:17:38.708Z,99821.72
2022-12-06T03:20:14.911Z,99830.38
2022-12-06T03:22:46.706Z,99828.81
2022-12-06T03:25:14.140Z,99811.22
2022-12-06T03:27:42.782Z,99806.19
2022-12-06T03:30:12.125Z,99808.38
2022-12-06T03:32:42.068Z,99813.38
2022-12-06T03:35:12.494Z,99834.25
2022-12-06T03:37:41.323Z,99811.66
2022-12-06T03:40:14.031Z,99813.31
2022-12-06T03:42:41.676Z,99809.41
2022-12-06T03:45:11.058Z,99817.47
2022-12-06T03:47:52.621Z,99812.34
2022-12-06T03:50:30.120Z,99803.84
2022-12-06T03:52:57.699Z,99807.19
2022-12-06T03:55:25.288Z,99799.44
2022-12-06T03:57:52.713Z,99786.13
2022-12-06T04:00:20.313Z,99796.00
2022-12-06T04:02:47.949Z,99800.84
2022-12-06T04:05:15.316Z,99798.88
2022-12-06T04:07:42.701Z,99798.88
2022-12-06T04:10:10.564Z,99818.13
2022-12-06T04:12:56.299Z,99855.66
2022-12-06T04:15:24.112Z,99875.56
2022-12-06T04:18:09.976Z,99870.41
2022-12-06T04:21:02.226Z,99868.84
2022-12-06T04:23:30.912Z,99876.69
2022-12-06T04:25:58.635Z,99869.75
2022-12-06T04:28:44.714Z,99869.25
2022-12-06T04:31:30.720Z,99874.34
2022-12-06T04:34:16.632Z,99875.69
2022-12-06T04:37:03.215Z,99870.91
2022-12-06T04:39:30.543Z,99855.56
2022-12-06T04:42:16.805Z,99863.13
2022-12-06T04:44:44.123Z,99859.47
2022-12-06T04:47:12.035Z,99858.50
2022-12-06T04:49:39.359Z,99856.94
2022-12-06T04:52:08.767Z,99852.91
2022-12-06T04:54:36.717Z,99855.94
2022-12-06T04:57:04.299Z,99852.22
2022-12-06T04:59:31.607Z,99846.50
2022-12-06T05:01:59.213Z,99839.00
2022-12-06T05:04:26.687Z,99836.88
2022-12-06T05:06:54.062Z,99831.19
2022-12-06T05:09:21.864Z,99839.81
2022-12-06T05:11:49.191Z,99854.44
2022-12-06T05:14:16.877Z,99848.87
2022-12-06T05:16:44.605Z,99845.69
2022-12-06T05:19:13.327Z,99843.72
2022-12-06T05:21:41.126Z,99846.34
2022-12-06T05:24:08.886Z,99849.28
2022-12-06T05:26:36.477Z,99860.59
2022-12-06T05:29:04.182Z,99852.22
2022-12-06T05:31:31.798Z,99845.09
2022-12-06T05:33:59.160Z,99852.03
2022-12-06T05:36:27.376Z,99845.31
2022-12-06T05:38:56.312Z,99832.34
2022-12-06T05:41:24.302Z,99835.38
2022-12-06T05:43:51.702Z,99842.06
2022-12-06T05:46:19.579Z,99844.97
2022-12-06T05:48:46.945Z,99856.84
2022-12-06T05:51:14.329Z,99861.66
2022-12-06T05:53:41.981Z,99856.53
2022-12-06T05:56:11.828Z,99855.47
2022-12-06T05:58:39.896Z,99841.69
2022-12-06T06:01:08.165Z,99851.06
2022-12-06T06:03:35.901Z,99845.88
2022-12-06T06:06:03.858Z,99831.19
2022-12-06T06:08:31.667Z,99839.38
2022-12-06T06:11:00.089Z,99849.78
2022-12-06T06:13:27.698Z,99842.13
2022-12-06T06:15:55.065Z,99826.59
2022-12-06T06:18:23.064Z,99815.75
2022-12-06T06:20:59.731Z,99810.25
2022-12-06T06:23:28.376Z,99810.06
2022-12-06T06:25:56.025Z,99820.09
2022-12-06T06:28:23.513Z,99822.69
2022-12-06T06:30:51.090Z,99818.97
2022-12-06T06:33:18.464Z,99806.94
2022-12-06T06:35:45.775Z,99800.38
2022-12-06T06:38:13.327Z,99799.94
2022-12-06T06:40:40.715Z,99803.03
2022-12-06T06:43:20.542Z,99806.84
2022-12-06T06:45:53.693Z,99809.03
2022-12-06T06:48:21.645Z,99817.56
2022-12-06T06:50:53.908Z,99807.06
2022-12-06T06:53:25.096Z,99804.63
2022-12-06T06:55:54.019Z,99802.59
2022-12-06T06:58:21.546Z,99809.16
2022-12-06T07:01:00.149Z,99808.56
2022-12-06T07:03:28.610Z,99794.78
2022-12-06T07:06:01.843Z,99783.66
2022-12-06T07:08:31.374Z,99781.38
2022-12-06T07:10:59.154Z,99787.84
2022-12-06T07:13:28.406Z,99790.34
2022-12-06T07:15:56.905Z,99796.44
2022-12-06T07:18:24.882Z,99790.81
2022-12-06T07:21:00.464Z,99791.94
2022-12-06T07:23:28.080Z,99802.87
2022-12-06T07:26:06.710Z,99797.69
2022-12-06T07:28:38.618Z,99785.56
2022-12-06T07:31:14.275Z,99791.38
2022-12-06T07:33:45.389Z,99795.69
2022-12-06T07:36:14.310Z,99787.37
2022-12-06T07:38:43.012Z,99791.16
2022-12-06T07:41:31.468Z,99797.81
2022-12-06T07:44:19.471Z,99806.09
2022-12-06T07:46:47.191Z,99799.47
2022-12-06T07:49:15.877Z,99803.87
2022-12-06T07:51:44.285Z,99811.88
2022-12-06T07:54:12.113Z,99818.69
2022-12-06T07:56:40.053Z,99810.06
2022-12-06T07:59:07.535Z,99819.97
2022-12-06T08:01:34.923Z,99818.16
2022-12-06T08:04:03.686Z,99813.59
2022-12-06T08:06:32.211Z,99816.94
2022-12-06T08:08:59.894Z,99817.63
2022-12-06T08:11:28.638Z,99820.03
2022-12-06T08:13:56.117Z,99826.09
2022-12-06T08:16:23.719Z,99834.00
2022-12-06T08:18:52.660Z,99831.47
2022-12-06T08:21:20.008Z,99836.72
2022-12-06T08:23:47.323Z,99838.22
2022-12-06T08:26:16.404Z,99829.03
2022-12-06T08:28:43.693Z,99826.72
2022-12-06T08:31:13.595Z,99825.56
2022-12-06T08:33:41.259Z,99830.03
2022-12-06T08:36:13.329Z,99830.78
2022-12-06T08:38:41.161Z,99830.78
2022-12-06T08:41:29.467Z,99830.50
2022-12-06T08:43:58.769Z,99818.31
2022-12-06T08:46:27.150Z,99821.34
2022-12-06T08:48:54.934Z,99835.84
2022-12-06T08:51:22.533Z,99833.28
2022-12-06T08:53:49.912Z,99848.53
2022-12-06T08:56:17.211Z,99838.84
2022-12-06T08:58:44.855Z,99831.19
2022-12-06T09:01:17.623Z,99837.94
2022-12-06T09:03:45.242Z,99827.16
2022-12-06T09:06:12.787Z,99832.06
2022-12-06T09:08:40.588Z,99820.84
2022-12-06T09:11:09.278Z,99828.41
2022-12-06T09:13:37.929Z,99824.31
2022-12-06T09:16:10.754Z,99826.69
2022-12-06T09:18:38.531Z,99820.09
2022-12-06T09:21:07.441Z,99828.09
2022-12-06T09:23:35.805Z,99825.41
2022-12-06T09:26:04.771Z,99829.28
2022-12-06T09:28:34.566Z,99829.53
2022-12-06T09:31:03.020Z,99826.44
2022-12-06T09:33:30.768Z,99828.50
2022-12-06T09:35:59.958Z,99836.00
2022-12-06T09:38:28.344Z,99834.59
2022-12-06T09:41:37.470Z,99835.41
2022-12-06T09:44:35.797Z,99844.81
2022-12-06T09:47:37.478Z,99835.72
2022-12-06T09:50:08.938Z,99820.28
2022-12-06T09:52:55.523Z,99823.84
2022-12-06T09:55:25.877Z,99830.91
2022-12-06T09:58:24.188Z,99827.44
2022-12-06T10:01:16.541Z,99821.16
2022-12-06T10:03:56.709Z,99819.06
2022-12-06T10:06:25.538Z,99816.28
2022-12-06T10:09:11.505Z,99810.31
2022-12-06T10:12:07.032Z,99812.88
2022-12-06T10:15:10.077Z,99805.53
2022-12-06T10:18:12.805Z,99807.06
2022-12-06T10:20:45.847Z,99803.44
2022-12-06T10:23:33.239Z,99798.19
2022-12-06T10:26:08.961Z,99787.06
2022-12-06T10:29:02.182Z,99789.50
2022-12-06T10:31:38.846Z,99787.78
2022-12-06T10:34:15.020Z,99791.28
2022-12-06T10:36:51.844Z,99772.37
2022-12-06T10:39:50.283Z,99763.88
2022-12-06T10:42:34.227Z,99777.03
2022-12-06T10:45:38.496Z,99781.63
2022-12-06T10:48:16.108Z,99778.84
2022-12-06T10:50:45.801Z,99776.66
2022-12-06T10:53:17.290Z,99778.59
2022-12-06T10:55:50.344Z,99777.41
2022-12-06T10:58:33.117Z,99768.72
2022-12-06T11:01:03.461Z,99764.41
2022-12-06T11:03:40.075Z,99772.78
2022-12-06T11:06:10.472Z,99769.59
2022-12-06T11:08:42.525Z,99765.94
2022-12-06T11:11:18.124Z,99760.84
2022-12-06T11:13:53.746Z,99755.91
2022-12-06T11:16:23.714Z,99750.50
2022-12-06T11:18:51.539Z,99758.13
2022-12-06T11:21:39.582Z,99750.91
2022-12-06T11:24:23.157Z,99754.22
2022-12-06T11:27:09.464Z,99765.00
2022-12-06T11:29:37.408Z,99749.41
2022-12-06T11:32:07.843Z,99755.72
2022-12-06T11:34:50.885Z,99755.28
2022-12-06T11:37:21.237Z,99745.41
2022-12-06T11:39:51.739Z,99744.72
2022-12-06T11:42:24.206Z,99747.41
2022-12-06T11:44:59.248Z,99752.88
2022-12-06T11:47:26.934Z,99750.09
2022-12-06T11:49:55.521Z,99746.72
2022-12-06T11:52:44.204Z,99747.19
2022-12-06T11:55:21.547Z,99742.59
2022-12-06T11:57:54.840Z,99739.63
2022-12-06T12:00:24.907Z,99734.37
2022-12-06T12:02:55.444Z,99740.13
2022-12-06T12:05:28.683Z,99740.84
2022-12-06T12:08:02.404Z,99743.66
2022-12-06T12:10:43.977Z,99744.09
2022-12-06T12:13:30.396Z,99740.03
2022-12-06T12:16:02.975Z,99744.19
2022-12-06T12:18:33.734Z,99746.91
2022-12-06T12:21:01.816Z,99752.69
2022-12-06T12:23:32.948Z,99764.25
2022-12-06T12:26:17.107Z,99751.41
2022-12-06T12:28:46.853Z,99741.31
2022-12-06T12:31:20.827Z,99755.19
2022-12-06T12:33:48.928Z,99748.87
2022-12-06T12:36:27.414Z,99745.41
2022-12-06T12:39:01.168Z,99736.81
2022-12-06T12:41:38.566Z,99740.94
2022-12-06T12:44:36.368Z,99743.41
2022-12-06T12:47:17.996Z,99748.09
2022-12-06T12:49:59.681Z,99753.06
2022-12-06T12:52:36.077Z,99746.69
2022-12-06T12:55:30.780Z,99738.38
2022-12-06T12:58:00.097Z,99747.97
2022-12-06T13:00:39.035Z,99741.34
2022-12-06T13:03:34.954Z,99745.34
2022-12-06T13:06:01.507Z,99739.09
2022-12-06T13:08:33.425Z,99741.87
2022-12-06T13:11:03.117Z,99738.34
2022-12-06T13:13:40.728Z,99740.69
2022-12-06T13:16:13.515Z,99745.00
2022-12-06T13:18:50.350Z,99746.62
2022-12-06T13:21:21.744Z,99733.94
2022-12-06T13:23:53.085Z,99745.88
2022-12-06T13:26:26.888Z,99736.59
2022-12-06T13:28:57.706Z,99733.03
2022-12-06T13:31:28.341Z,99742.41
2022-12-06T13:34:00.960Z,99741.63
2022-12-06T13:36:33.252Z,99738.84
2022-12-06T13:39:32.728Z,99740.88
2022-12-06T13:42:20.252Z,99739.75
2022-12-06T13:44:47.840Z,99742.09
2022-12-06T13:47:27.121Z,99747.88
2022-12-06T13:49:59.117Z,99743.03
2022-12-06T13:52:45.357Z,99746.97
2022-12-06T13:55:25.532Z,99746.66
2022-12-06T13:57:56.088Z,99746.69
2022-12-06T14:00:29.626Z,99744.31
2022-12-06T14:03:21.616Z,99752.34
2022-12-06T14:06:14.920Z,99751.47
2022-12-06T14:08:54.098Z,99743.53
2022-12-06T14:11:25.673Z,99745.47
2022-12-06T14:13:56.102Z,99745.41
2022-12-06T14:16:39.821Z,99731.38
2022-12-06T14:19:16.616Z,99735.13
2022-12-06T14:21:55.766Z,99729.53
2022-12-06T14:24:37.921Z,99732.53
2022-12-06T14:27:15.381Z,99732.31
2022-12-06T14:29:44.538Z,99736.50
2022-12-06T14:32:11.904Z,99744.66
2022-12-06T14:34:39.486Z,99748.53
2022-12-06T14:37:21.236Z,99745.09
2022-12-06T14:39:53.291Z,99741.59
2022-12-06T14:42:39.562Z,99744.41
2022-12-06T14:45:13.679Z,99747.13
2022-12-06T14:47:43.332Z,99752.06
2022-12-06T14:50:26.074Z,99748.00
2022-12-06T14:53:01.447Z,99749.50
2022-12-06T14:55:32.032Z,99750.94
2022-12-06T14:58:22.834Z,99741.56
2022-12-06T15:00:56.085Z,99745.16
2022-12-06T15:03:28.615Z,99754.81
2022-12-06T15:06:16.241Z,99754.66
2022-12-06T15:08:43.837Z,99753.25
2022-12-06T15:11:11.211Z,99758.88
2022-12-06T15:13:39.471Z,99767.38
2022-12-06T15:16:10.123Z,99757.44
2022-12-06T15:18:42.831Z,99766.69
2022-12-06T15:21:16.817Z,99757.34
2022-12-06T15:23:50.938Z,99759.16
2022-12-06T15:26:20.053Z,99765.94
2022-12-06T15:28:48.064Z,99758.00
2022-12-06T15:31:18.888Z,99762.44
2022-12-06T15:33:46.999Z,99764.03
2022-12-06T15:36:19.768Z,99762.94
2022-12-06T15:38:47.615Z,99757.56
2022-12-06T15:41:17.794Z,99766.63
2022-12-06T15:43:46.097Z,99776.62
2022-12-06T15:46:20.811Z,99775.53
2022-12-06T15:48:48.509Z,99774.78
2022-12-06T15:51:20.764Z,99790.22
2022-12-06T15:53:50.341Z,99780.06
2022-12-06T15:56:21.139Z,99785.50
2022-12-06T15:58:49.068Z,99778.22
2022-12-06T16:01:23.706Z,99785.78
2022-12-06T16:03:55.380Z,99786.00
2022-12-06T16:06:24.724Z,99788.97
2022-12-06T16:08:52.762Z,99786.06
2022-12-06T16:11:22.905Z,99797.44
2022-12-06T16:13:50.925Z,99791.50
2022-12-06T16:16:20.355Z,99788.37
2022-12-06T16:18:48.850Z,99797.16
2022-12-06T16:21:31.103Z,99789.31
2022-12-06T16:24:18.196Z,99795.25
2022-12-06T16:26:46.512Z,99789.91
2022-12-06T16:29:25.145Z,99788.59
2022-12-06T16:31:54.102Z,99786.34
2022-12-06T16:34:21.919Z,99792.19
2022-12-06T16:37:01.554Z,99782.44
2022-12-06T16:39:31.396Z,99788.59
2022-12-06T16:41:59.113Z,99789.88
2022-12-06T16:44:27.037Z,99793.53
2022-12-06T16:46:54.948Z,99794.22
2022-12-06T16:49:45.815Z,99810.75
2022-12-06T16:52:15.954Z,99800.19
2022-12-06T16:54:44.152Z,99795.25
2022-12-06T16:57:13.876Z,99808.56
2022-12-06T16:59:42.702Z,99810.78
2022-12-06T17:02:28.670Z,99800.59
2022-12-06T17:04:58.104Z,99807.97
2022-12-06T17:07:26.111Z,99812.97
2022-12-06T17:09:56.037Z,99802.22
2022-12-06T17:12:24.548Z,99806.97
2022-12-06T17:14:52.959Z,99808.09
2022-12-06T17:17:22.199Z,99810.00
2022-12-06T17:19:51.584Z,99804.19
2022-12-06T17:22:20.749Z,99811.41
2022-12-06T17:24:49.676Z,99814.28
2022-12-06T17:27:18.403Z,99813.66
2022-12-06T17:29:46.632Z,99814.38
2022-12-06T17:32:14.855Z,99807.44
2022-12-06T17:34:43.485Z,99805.22
2022-12-06T17:37:11.765Z,99807.16
2022-12-06T17:39:40.322Z,99819.59
2022-12-06T17:42:30.549Z,99814.44
2022-12-06T17:44:59.416Z,99807.91
2022-12-06T17:47:28.356Z,99801.69
2022-12-06T17:49:56.872Z,99799.88
2022-12-06T17:52:25.170Z,99795.87
2022-12-06T17:54:53.183Z,99797.75
2022-12-06T17:57:21.727Z,99802.69
2022-12-06T17:59:49.657Z,99802.03
2022-12-06T18:02:26.312Z,99805.63
2022-12-06T18:04:56.949Z,99809.72
2022-12-06T18:07:26.172Z,99804.94
2022-12-06T18:09:54.115Z,99804.28
2022-12-06T18:12:21.793Z,99804.06
2022-12-06T18:14:51.279Z,99801.22
2022-12-06T18:17:20.675Z,99793.44
2022-12-06T18:19:49.467Z,99787.37
2022-12-06T18:22:19.783Z,99791.47
2022-12-06T18:24:51.435Z,99791.34
2022-12-06T18:27:19.431Z,99785.84
2022-12-06T18:29:48.975Z,99792.16
2022-12-06T18:32:17.107Z,99792.97
2022-12-06T18:34:45.382Z,99787.13
2022-12-06T18:37:14.195Z,99785.25
2022-12-06T18:39:42.336Z,99782.47
2022-12-06T18:42:10.864Z,99782.47
2022-12-06T18:44:39.647Z,99784.31
2022-12-06T18:47:09.760Z,99780.78
2022-12-06T18:49:38.083Z,99777.72
2022-12-06T18:52:08.231Z,99782.63
2022-12-06T18:54:36.597Z,99780.50
2022-12-06T18:57:04.696Z,99774.72
2022-12-06T18:59:44.370Z,99775.47
2022-12-06T19:02:14.269Z,99773.41
2022-12-06T19:04:43.733Z,99775.13
2022-12-06T19:07:21.928Z,99765.88
2022-12-06T19:09:55.954Z,99766.50
2022-12-06T19:12:25.232Z,99774.31
2022-12-06T19:14:54.320Z,99782.00
2022-12-06T19:17:23.302Z,99784.50
2022-12-06T19:19:52.080Z,99784.34
2022-12-06T19:22:21.624Z,99789.28
2022-12-06T19:24:51.874Z,99788.06
2022-12-06T19:27:21.263Z,99783.31
2022-12-06T19:29:51.842Z,99787.44
2022-12-06T19:32:21.944Z,99785.16
2022-12-06T19:34:50.962Z,99779.37
2022-12-06T19:37:19.553Z,99783.47
2022-12-06T19:39:48.993Z,99787.28
2022-12-06T19:42:37.250Z,99792.09
2022-12-06T19:45:11.277Z,99783.06
2022-12-06T19:47:39.887Z,99785.38
2022-12-06T19:50:09.453Z,99786.28
2022-12-06T19:52:42.462Z,99784.06
2022-12-06T19:55:12.278Z,99781.31
2022-12-06T19:57:41.889Z,99775.56
2022-12-06T20:00:11.922Z,99785.97
2022-12-06T20:02:40.597Z,99783.09
2022-12-06T20:05:09.829Z,99780.84
2022-12-06T20:07:38.757Z,99786.31
2022-12-06T20:10:08.555Z,99783.66
2022-12-06T20:12:37.687Z,99785.16
2022-12-06T20:15:08.277Z,99780.63
2022-12-06T20:17:37.533Z,99770.16
2022-12-06T20:20:07.023Z,99770.16
2022-12-06T20:22:35.251Z,99765.66
2022-12-06T20:25:05.867Z,99765.28
2022-12-06T20:27:52.586Z,99767.28
2022-12-06T20:30:23.551Z,99762.31
2022-12-06T20:32:52.167Z,99759.88
2022-12-06T20:35:22.885Z,99760.78
2022-12-06T20:37:53.567Z,99760.88
2022-12-06T20:40:29.811Z,99762.59
2022-12-06T20:43:00.107Z,99765.72
2022-12-06T20:45:30.338Z,99770.47
2022-12-06T20:47:59.758Z,99768.59
2022-12-06T20:50:28.132Z,99772.13
2022-12-06T20:52:59.811Z,99766.88
2022-12-06T20:55:28.911Z,99766.28
2022-12-06T20:57:58.374Z,99767.31
2022-12-06T21:00:27.382Z,99761.53
2022-12-06T21:02:56.192Z,99761.78
2022-12-06T21:05:24.987Z,99763.63
2022-12-06T21:07:54.552Z,99764.41
2022-12-06T21:10:22.628Z,99761.50
2022-12-06T21:12:50.824Z,99763.56
2022-12-06T21:15:18.492Z,99765.19
2022-12-06T21:17:46.214Z,99754.28
2022-12-06T21:20:13.885Z,99755.88
2022-12-06T21:22:41.763Z,99769.62
2022-12-06T21:25:10.029Z,99775.75
2022-12-06T21:27:38.037Z,99780.94
2022-12-06T21:30:05.967Z,99783.16
2022-12-06T21:32:34.193Z,99780.66
2022-12-06T21:35:02.077Z,99783.22
2022-12-06T21:37:29.440Z,99789.16
2022-12-06T21:39:56.793Z,99786.72
2022-12-06T21:42:24.694Z,99785.16
2022-12-06T21:44:52.038Z,99794.66
2022-12-06T21:47:19.412Z,99789.94
2022-12-06T21:49:47.223Z,99795.75
2022-12-06T21:52:14.566Z,99788.37
2022-12-06T21:54:41.926Z,99795.22
2022-12-06T21:57:09.651Z,99797.72
2022-12-06T21:59:36.988Z,99793.78
2022-12-06T22:02:04.447Z,99796.28
2022-12-06T22:04:32.154Z,99793.19
2022-12-06T22:06:59.790Z,99793.81
2022-12-06T22:09:27.130Z,99782.06
2022-12-06T22:11:55.136Z,99791.56
2022-12-06T22:14:22.759Z,99799.28
2022-12-06T22:16:51.019Z,99794.91
2022-12-06T22:19:18.741Z,99787.19
2022-12-06T22:21:47.692Z,99790.06
2022-12-06T22:24:15.136Z,99782.28
2022-12-06T22:26:42.783Z,99785.63
2022-12-06T22:29:10.454Z,99785.09
2022-12-06T22:31:37.952Z,99778.38
2022-12-06T22:34:05.703Z,99786.38
2022-12-06T22:36:34.011Z,99776.78
2022-12-06T22:39:03.583Z,99773.78
2022-12-06T22:41:31.547Z,99774.16
2022-12-06T22:44:01.204Z,99777.28
2022-12-06T22:46:30.011Z,99769.09
2022-12-06T22:48:58.808Z,99772.56
2022-12-06T22:51:34.590Z,99772.63
2022-12-06T22:54:08.944Z,99768.12
2022-12-06T22:56:36.329Z,99772.81
2022-12-06T22:59:06.295Z,99767.78
2022-12-06T23:01:35.103Z,99771.31
2022-12-06T23:04:05.094Z,99758.31
2022-12-06T23:06:34.554Z,99759.97
2022-12-06T23:09:02.024Z,99759.91
2022-12-06T23:11:31.798Z,99750.88
2022-12-06T23:13:59.661Z,99759.69
2022-12-06T23:16:28.629Z,99759.75
2022-12-06T23:18:56.670Z,99762.44
2022-12-06T23:21:27.204Z,99756.25
2022-12-06T23:23:59.430Z,99752.94
2022-12-06T23:26:33.150Z,99751.31
2022-12-06T23:29:01.340Z,99748.78
2022-12-06T23:31:33.840Z,99737.66
2022-12-06T23:34:04.991Z,99730.22
2022-12-06T23:36:33.862Z,99747.16
2022-12-06T23:39:01.444Z,99750.22
2022-12-06T23:41:30.347Z,99756.03
2022-12-06T23:43:58.292Z,99758.50
2022-12-06T23:46:35.491Z,99754.78
2022-12-06T23:49:04.717Z,99755.41
2022-12-06T23:51:34.950Z,99753.97
2022-12-06T23:54:04.746Z,99756.00
2022-12-06T23:56:34.697Z,99752.38
2022-12-06T23:59:03.159Z,99744.44
